Time;durP1;ratioP1;P1;durP2;ratioP2;P2;SDS_P1;SDS_P2;PMS_P1;PMS_P2;Temp;Humidity;BMP_temperature;BMP_pressure;BME280_temperature;BME280_humidity;BME280_pressure;Samples;Min_cycle;Max_cycle;Signal;HPM_P1;HPM_P2
2024/01/08 00:01:12;;;;;;;9.77;4.38;;;;;;;2.81;59.29;103262.59;4992622;28;20034;-47
2024/01/08 00:03:40;;;;;;;8.50;3.72;;;;;;;2.88;59.67;103273.38;4996205;28;20030;-45
2024/01/08 00:06:06;;;;;;;7.90;4.18;;;;;;;2.93;59.05;103272.13;4996955;28;20069;-50
2024/01/08 00:08:32;;;;;;;9.38;4.43;;;;;;;2.68;59.24;103267.53;4998807;28;20030;-51
2024/01/08 00:10:57;;;;;;;7.80;4.30;;;;;;;2.71;59.27;103264.28;4999750;28;20130;-48
2024/01/08 00:13:23;;;;;;;9.45;4.43;;;;;;;2.96;57.81;103254.31;5003187;28;20038;-45
2024/01/08 00:15:48;;;;;;;9.85;4.45;;;;;;;3.30;57.31;103257.94;4993651;28;20501;-47
2024/01/08 00:18:13;;;;;;;9.48;4.50;;;;;;;3.34;57.76;103260.91;4993773;28;20042;-45
2024/01/08 00:20:39;;;;;;;11.10;4.15;;;;;;;3.26;57.48;103261.97;4994077;28;20656;-45
2024/01/08 00:23:04;;;;;;;9.52;4.05;;;;;;;2.88;58.53;103258.84;4993581;28;20540;-46
2024/01/08 00:25:29;;;;;;;10.40;4.22;;;;;;;2.95;58.19;103263.72;4991834;28;20428;-45
2024/01/08 00:27:56;;;;;;;9.13;4.30;;;;;;;2.93;57.91;103266.97;4991430;28;20528;-47
2024/01/08 00:30:21;;;;;;;10.65;4.00;;;;;;;3.04;58.73;103261.00;4991351;28;20489;-48
2024/01/08 00:32:47;;;;;;;9.60;4.40;;;;;;;2.90;58.70;103257.28;4991961;28;20049;-45
2024/01/08 00:35:12;;;;;;;10.75;4.50;;;;;;;2.90;58.23;103256.38;4990873;28;20045;-50
2024/01/08 00:37:43;;;;;;;10.65;4.30;;;;;;;2.90;57.63;103267.59;4991565;28;20129;-44
2024/01/08 00:40:10;;;;;;;8.43;3.85;;;;;;;2.87;57.59;103251.00;4990368;28;20030;-45
2024/01/08 00:42:36;;;;;;;8.88;3.53;;;;;;;2.64;57.71;103254.22;4990660;28;20049;-47
2024/01/08 00:45:02;;;;;;;9.00;4.10;;;;;;;3.05;56.81;103258.53;4990537;28;20045;-45
2024/01/08 00:47:28;;;;;;;7.25;3.78;;;;;;;3.14;56.24;103251.56;4991314;28;20050;-46
2024/01/08 00:49:53;;;;;;;7.47;3.85;;;;;;;2.53;57.23;103255.94;4990909;28;20026;-48
2024/01/08 00:52:19;;;;;;;9.07;3.72;;;;;;;2.69;57.93;103255.50;4991960;28;20045;-45
2024/01/08 00:54:44;;;;;;;7.03;3.65;;;;;;;2.95;56.83;103262.81;4991136;28;20045;-47
2024/01/08 00:57:09;;;;;;;7.15;3.80;;;;;;;2.43;57.24;103258.50;4993099;28;20041;-46
2024/01/08 00:59:35;;;;;;;10.55;4.20;;;;;;;2.72;56.84;103253.22;4992730;28;20039;-45
2024/01/08 01:02:00;;;;;;;8.20;3.97;;;;;;;2.52;56.29;103271.25;4991330;28;20034;-50
2024/01/08 01:04:25;;;;;;;8.18;3.90;;;;;;;2.77;56.51;103267.38;4994091;28;20408;-46
2024/01/08 01:06:51;;;;;;;7.70;4.13;;;;;;;2.78;56.09;103256.28;4992195;28;20058;-45
2024/01/08 01:09:16;;;;;;;8.48;4.47;;;;;;;2.89;54.47;103260.63;4991933;28;20472;-45
2024/01/08 01:11:42;;;;;;;10.50;4.20;;;;;;;2.61;55.95;103256.56;4992622;28;20038;-45
2024/01/08 01:14:07;;;;;;;7.30;4.15;;;;;;;2.55;55.72;103266.38;4991560;28;20034;-45
2024/01/08 01:16:33;;;;;;;8.75;4.00;;;;;;;2.68;55.41;103264.03;4992315;28;20065;-45
2024/01/08 01:18:59;;;;;;;8.00;4.05;;;;;;;2.91;54.27;103266.84;4990389;28;20030;-48
2024/01/08 01:21:24;;;;;;;8.32;4.18;;;;;;;2.94;54.19;103266.16;4990984;28;20042;-45
2024/01/08 01:23:50;;;;;;;7.38;4.10;;;;;;;2.85;54.26;103258.59;4990424;28;20125;-45
2024/01/08 01:26:16;;;;;;;7.82;4.00;;;;;;;2.89;53.99;103263.22;4990127;28;20042;-46
2024/01/08 01:28:42;;;;;;;6.85;3.75;;;;;;;2.56;54.44;103250.16;4990446;28;20057;-46
2024/01/08 01:31:10;;;;;;;7.75;3.97;;;;;;;3.17;53.18;103266.38;4989864;28;20040;-48
2024/01/08 01:33:35;;;;;;;10.60;4.25;;;;;;;3.11;53.53;103281.34;4990309;28;20050;-45
2024/01/08 01:36:00;;;;;;;9.45;4.35;;;;;;;2.70;54.00;103270.19;4990118;28;20233;-47
2024/01/08 01:38:26;;;;;;;6.85;3.70;;;;;;;2.66;53.84;103276.78;4990637;28;20493;-44
2024/01/08 01:40:51;;;;;;;9.25;3.72;;;;;;;3.00;53.58;103285.59;4990598;28;20390;-44
2024/01/08 01:43:28;;;;;;;9.30;4.40;;;;;;;3.04;52.92;103281.63;4990175;28;20031;-46
2024/01/08 01:45:56;;;;;;;8.60;4.00;;;;;;;2.74;53.41;103283.47;4989836;28;20133;-46
2024/01/08 01:48:25;;;;;;;7.18;4.07;;;;;;;2.39;53.79;103270.22;4990850;28;20037;-45
2024/01/08 01:50:51;;;;;;;8.85;4.22;;;;;;;2.71;53.35;103297.75;4993244;28;20050;-44
2024/01/08 01:53:16;;;;;;;7.93;4.13;;;;;;;2.94;53.03;103300.56;4996566;28;20042;-45
2024/01/08 01:55:42;;;;;;;9.35;4.15;;;;;;;2.81;53.04;103300.31;4995308;28;20121;-45
2024/01/08 01:58:09;;;;;;;8.77;4.38;;;;;;;2.84;53.11;103298.91;4994494;28;20038;-45
2024/01/08 02:00:35;;;;;;;8.02;4.28;;;;;;;2.79;52.43;103319.91;4992641;28;20065;-50
2024/01/08 02:03:02;;;;;;;9.38;4.43;;;;;;;2.51;53.21;103313.19;4993589;28;20525;-45
2024/01/08 02:05:27;;;;;;;9.50;4.93;;;;;;;2.37;53.04;103305.25;4993544;28;20042;-47
2024/01/08 02:07:53;;;;;;;9.13;4.50;;;;;;;2.75;52.36;103303.28;4993908;28;20423;-48
2024/01/08 02:10:19;;;;;;;12.88;4.78;;;;;;;2.51;52.63;103313.19;4994231;28;20493;-46
2024/01/08 02:12:45;;;;;;;8.52;4.43;;;;;;;2.50;51.76;103306.28;4994152;28;20069;-46
2024/01/08 02:15:10;;;;;;;9.20;4.57;;;;;;;3.08;51.01;103302.59;4993677;28;20042;-47
2024/01/08 02:17:35;;;;;;;8.20;4.32;;;;;;;2.85;51.72;103308.44;4994387;28;20141;-47
2024/01/08 02:20:01;;;;;;;11.70;4.50;;;;;;;2.57;52.18;103311.16;4993446;28;20034;-45
2024/01/08 02:22:26;;;;;;;11.07;5.07;;;;;;;2.69;52.30;103300.19;4993703;28;20035;-45
2024/01/08 02:24:51;;;;;;;8.68;4.47;;;;;;;2.71;51.67;103298.66;4992754;28;20086;-51
2024/01/08 02:27:17;;;;;;;10.07;4.68;;;;;;;3.02;50.53;103304.69;4992840;28;20080;-44
2024/01/08 02:29:42;;;;;;;12.65;4.53;;;;;;;2.98;52.12;103312.94;4993570;28;20045;-45
2024/01/08 02:32:10;;;;;;;9.38;4.40;;;;;;;2.78;52.08;103305.22;4992989;28;20041;-47
2024/01/08 02:34:36;;;;;;;8.93;4.65;;;;;;;2.88;52.07;103300.06;4991388;28;20040;-52
2024/01/08 02:37:01;;;;;;;9.85;4.47;;;;;;;2.93;51.63;103303.03;4992855;28;20034;-48
2024/01/08 02:39:26;;;;;;;11.38;4.45;;;;;;;2.55;52.53;103303.31;4993716;28;20045;-46
2024/01/08 02:41:51;;;;;;;8.18;4.60;;;;;;;2.74;51.61;103310.91;4994327;28;20042;-45
2024/01/08 02:44:17;;;;;;;11.75;4.80;;;;;;;2.33;51.88;103305.72;4992827;28;20041;-47
2024/01/08 02:46:42;;;;;;;10.38;4.40;;;;;;;2.92;51.42;103306.38;4992897;28;20489;-47
2024/01/08 02:49:07;;;;;;;8.95;4.40;;;;;;;2.55;52.18;103311.03;4991170;28;20178;-46
2024/01/08 02:51:33;;;;;;;11.68;4.80;;;;;;;2.22;52.38;103311.63;4993235;28;20412;-43
2024/01/08 02:53:58;;;;;;;8.60;4.50;;;;;;;2.79;51.97;103318.25;4992335;28;20064;-46
2024/01/08 02:56:25;;;;;;;8.00;4.22;;;;;;;2.71;51.54;103314.13;4993289;28;20060;-44
2024/01/08 02:58:50;;;;;;;9.10;4.22;;;;;;;2.29;52.93;103316.53;4992984;28;20037;-44
2024/01/08 03:01:16;;;;;;;8.48;4.57;;;;;;;2.71;52.04;103311.53;4992759;28;20038;-46
2024/01/08 03:03:42;;;;;;;8.02;3.80;;;;;;;2.39;51.74;103315.63;4992487;28;20089;-45
2024/01/08 03:06:07;;;;;;;10.18;4.43;;;;;;;2.67;50.98;103313.75;4993031;28;20417;-48
2024/01/08 03:08:32;;;;;;;8.45;4.43;;;;;;;2.39;52.05;103318.22;4993798;28;20034;-45
2024/01/08 03:10:58;;;;;;;10.45;4.68;;;;;;;2.17;51.87;103317.16;4993357;28;20054;-46
2024/01/08 03:13:23;;;;;;;10.70;4.90;;;;;;;2.50;51.86;103324.31;4993486;28;20050;-44
2024/01/08 03:15:48;;;;;;;9.55;4.50;;;;;;;2.35;52.49;103321.31;4993345;28;20122;-46
2024/01/08 03:18:13;;;;;;;9.30;4.22;;;;;;;2.36;52.91;103323.13;4992881;28;20050;-46
2024/01/08 03:20:39;;;;;;;10.15;4.80;;;;;;;2.29;52.51;103324.25;4994020;28;20061;-44
2024/01/08 03:23:05;;;;;;;10.40;5.22;;;;;;;1.94;52.56;103328.06;4993483;28;20077;-45
2024/01/08 03:25:30;;;;;;;11.30;5.00;;;;;;;1.98;52.96;103324.97;4992282;28;20040;-46
2024/01/08 03:27:56;;;;;;;10.75;4.53;;;;;;;1.88;53.19;103332.66;4992330;28;20041;-45
2024/01/08 03:30:21;;;;;;;10.23;4.88;;;;;;;1.83;52.92;103328.78;4992348;28;20046;-44
2024/01/08 03:32:46;;;;;;;8.82;4.38;;;;;;;1.79;53.44;103331.84;4992872;28;20117;-45
2024/01/08 03:35:12;;;;;;;9.60;4.60;;;;;;;2.14;52.20;103334.91;4991453;28;20401;-45
2024/01/08 03:37:37;;;;;;;11.43;4.38;;;;;;;1.61;53.09;103341.41;4992615;28;20057;-48
2024/01/08 03:40:04;;;;;;;11.80;4.78;;;;;;;1.84;53.83;103339.19;4991777;28;20483;-47
2024/01/08 03:42:30;;;;;;;10.32;5.18;;;;;;;1.42;53.48;103343.09;4992115;28;20053;-47
2024/01/08 03:44:56;;;;;;;12.00;4.72;;;;;;;1.87;53.51;103348.84;4991182;28;20061;-44
2024/01/08 03:47:21;;;;;;;8.88;4.45;;;;;;;1.71;52.91;103341.44;4991890;28;20038;-44
2024/01/08 03:49:46;;;;;;;10.30;5.15;;;;;;;1.73;53.29;103347.63;4991883;28;20035;-46
2024/01/08 03:52:12;;;;;;;12.15;4.60;;;;;;;1.81;53.54;103348.31;4991230;28;20045;-46
2024/01/08 03:54:37;;;;;;;8.73;4.68;;;;;;;2.01;53.54;103349.28;4991252;28;20073;-50
2024/01/08 03:57:03;;;;;;;10.07;4.65;;;;;;;1.56;54.13;103350.41;4991252;28;20114;-45
2024/01/08 03:59:29;;;;;;;11.23;4.82;;;;;;;1.74;54.49;103345.97;4991724;28;20040;-46
2024/01/08 04:01:54;;;;;;;9.63;4.47;;;;;;;1.45;54.96;103344.31;4991680;28;20130;-46
2024/01/08 04:04:19;;;;;;;13.00;5.15;;;;;;;1.79;54.22;103347.28;4991971;28;20030;-47
2024/01/08 04:06:46;;;;;;;13.75;4.78;;;;;;;1.30;54.95;103342.00;4992347;28;20033;-44
2024/01/08 04:09:12;;;;;;;10.63;4.82;;;;;;;1.52;54.88;103345.75;4993328;28;20092;-45
2024/01/08 04:11:37;;;;;;;11.20;4.85;;;;;;;1.68;54.70;103345.44;4995133;28;20142;-46
2024/01/08 04:14:03;;;;;;;8.32;4.53;;;;;;;1.37;55.77;103347.84;4994557;28;20085;-47
2024/01/08 04:16:28;;;;;;;12.05;5.10;;;;;;;1.56;55.24;103350.41;4996501;28;20030;-45
2024/01/08 04:18:53;;;;;;;9.48;4.82;;;;;;;1.42;55.23;103348.25;4995022;28;20065;-46
2024/01/08 04:21:19;;;;;;;10.57;4.90;;;;;;;1.67;55.06;103354.81;4992257;28;20472;-45
2024/01/08 04:23:44;;;;;;;10.30;4.80;;;;;;;1.84;54.45;103353.72;4991169;28;20034;-49
2024/01/08 04:26:23;;;;;;;10.48;4.85;;;;;;;1.49;55.93;103350.59;4990853;28;20040;-47
2024/01/08 04:28:49;;;;;;;11.35;4.82;;;;;;;1.79;54.85;103355.88;4991457;28;20035;-44
2024/01/08 04:31:18;;;;;;;9.98;5.00;;;;;;;1.28;55.81;103349.56;4991002;28;20523;-45
2024/01/08 04:33:44;;;;;;;12.00;4.97;;;;;;;1.37;56.09;103352.09;4991235;28;20038;-44
2024/01/08 04:36:10;;;;;;;12.27;5.03;;;;;;;1.50;55.48;103357.56;4991814;28;20141;-49
2024/01/08 04:38:36;;;;;;;12.05;4.88;;;;;;;1.50;55.53;103358.47;4991423;28;20042;-46
2024/01/08 04:41:01;;;;;;;11.25;5.13;;;;;;;1.51;55.62;103355.13;4995207;28;20061;-46
2024/01/08 04:43:26;;;;;;;11.25;4.97;;;;;;;1.65;55.53;103358.91;4994212;28;20681;-45
2024/01/08 04:45:52;;;;;;;12.85;5.30;;;;;;;1.67;55.88;103361.63;4993275;28;20040;-43
2024/01/08 04:48:17;;;;;;;12.32;5.25;;;;;;;1.93;54.71;103351.97;4994225;28;20042;-45
2024/01/08 04:50:42;;;;;;;11.90;5.38;;;;;;;1.94;55.16;103364.06;4996397;28;20034;-45
2024/01/08 04:53:08;;;;;;;10.75;4.47;;;;;;;1.98;54.49;103358.41;4995496;28;20122;-45
2024/01/08 04:55:33;;;;;;;12.93;5.57;;;;;;;1.71;54.49;103354.31;4994714;28;20073;-46
2024/01/08 04:57:58;;;;;;;12.55;5.60;;;;;;;1.26;55.40;103343.41;4991274;28;20100;-45
2024/01/08 05:00:24;;;;;;;9.68;4.82;;;;;;;1.77;55.46;103357.41;4991126;28;20045;-47
2024/01/08 05:02:49;;;;;;;15.57;5.38;;;;;;;1.27;56.53;103345.22;4991151;28;20516;-45
2024/01/08 05:05:14;;;;;;;11.32;5.22;;;;;;;1.45;56.33;103349.44;4989974;28;20078;-44
2024/01/08 05:07:39;;;;;;;11.38;5.65;;;;;;;1.19;57.39;103353.91;4991045;28;20527;-47
2024/01/08 05:10:05;;;;;;;11.85;5.18;;;;;;;1.62;56.27;103354.41;4990864;28;20572;-46
2024/01/08 05:12:30;;;;;;;13.30;5.28;;;;;;;1.62;56.45;103359.56;4991366;28;20038;-45
2024/01/08 05:14:56;;;;;;;11.40;5.22;;;;;;;1.78;56.00;103355.75;4990169;28;20081;-45
2024/01/08 05:17:21;;;;;;;12.95;5.65;;;;;;;1.73;56.67;103357.94;4990485;28;20050;-44
2024/01/08 05:19:46;;;;;;;11.15;5.13;;;;;;;1.55;57.57;103351.16;4990860;28;20042;-46
2024/01/08 05:22:12;;;;;;;12.00;5.20;;;;;;;1.60;56.57;103349.88;4990543;28;20580;-44
2024/01/08 05:24:37;;;;;;;11.18;5.25;;;;;;;1.53;57.08;103342.38;4990903;28;20042;-46
2024/01/08 05:27:02;;;;;;;12.57;5.68;;;;;;;1.38;57.45;103344.53;4992769;28;20058;-48
2024/01/08 05:29:28;;;;;;;12.93;5.95;;;;;;;1.39;58.08;103342.84;4995157;28;20038;-45
2024/01/08 05:31:53;;;;;;;11.95;5.75;;;;;;;1.60;57.29;103337.94;4994703;28;20041;-49
2024/01/08 05:34:18;;;;;;;11.30;5.70;;;;;;;1.63;56.94;103339.88;4994527;28;20477;-45
2024/01/08 05:36:44;;;;;;;12.07;5.75;;;;;;;1.79;57.09;103342.13;4994137;28;20045;-46
2024/01/08 05:39:09;;;;;;;15.90;6.00;;;;;;;1.50;57.65;103343.03;4994540;28;20034;-44
2024/01/08 05:41:40;;;;;;;12.95;6.22;;;;;;;1.97;57.11;103336.94;4994548;28;20412;-45
2024/01/08 05:44:06;;;;;;;16.83;5.85;;;;;;;2.08;56.61;103340.41;4993833;28;20045;-47
2024/01/08 05:46:32;;;;;;;14.98;6.07;;;;;;;1.96;56.87;103342.84;4994175;28;20124;-45
2024/01/08 05:48:57;;;;;;;14.48;5.75;;;;;;;2.09;56.61;103342.22;4992356;28;20034;-44
2024/01/08 05:51:27;;;;;;;12.82;5.55;;;;;;;2.06;57.47;103346.22;4994051;28;20034;-45
2024/01/08 05:53:53;;;;;;;14.40;5.97;;;;;;;2.06;57.16;103339.41;4994113;28;20069;-45
2024/01/08 05:56:19;;;;;;;11.10;5.85;;;;;;;2.24;56.86;103345.25;4995249;28;20113;-44
2024/01/08 05:58:44;;;;;;;13.38;6.13;;;;;;;2.16;57.42;103342.00;4994526;28;20085;-49
2024/01/08 06:01:10;;;;;;;14.18;6.30;;;;;;;2.08;57.94;103344.66;4994217;28;20048;-46
2024/01/08 06:03:35;;;;;;;14.48;6.10;;;;;;;2.08;58.21;103342.09;4993787;28;20034;-44
2024/01/08 06:06:01;;;;;;;13.07;6.13;;;;;;;2.15;57.07;103347.91;4993493;28;20034;-47
2024/01/08 06:08:26;;;;;;;13.77;6.35;;;;;;;2.19;58.30;103338.81;4993796;28;20085;-47
2024/01/08 06:10:52;;;;;;;15.05;6.60;;;;;;;1.77;59.17;103346.25;4994899;28;20050;-44
2024/01/08 06:13:17;;;;;;;15.45;6.57;;;;;;;2.03;58.82;103345.16;4993891;28;20122;-45
2024/01/08 06:15:43;;;;;;;14.23;6.13;;;;;;;1.94;58.62;103349.53;4994620;28;20046;-46
2024/01/08 06:18:08;;;;;;;13.48;6.40;;;;;;;2.11;59.37;103345.84;4996307;28;20038;-45
2024/01/08 06:20:34;;;;;;;14.23;6.55;;;;;;;2.09;58.96;103344.81;4997978;28;20038;-44
2024/01/08 06:23:00;;;;;;;14.07;6.63;;;;;;;1.98;58.60;103333.59;4995735;28;20031;-49
2024/01/08 06:25:25;;;;;;;14.82;6.53;;;;;;;2.27;58.97;103346.38;4995814;28;20038;-48
2024/01/08 06:27:51;;;;;;;14.60;6.82;;;;;;;2.54;58.19;103340.13;4996083;28;20117;-44
2024/01/08 06:30:17;;;;;;;13.75;6.50;;;;;;;2.41;57.70;103348.47;4997487;28;20039;-45
2024/01/08 06:32:43;;;;;;;15.77;7.15;;;;;;;2.68;56.63;103338.72;4994070;28;20085;-46
2024/01/08 06:35:09;;;;;;;13.27;6.72;;;;;;;2.50;57.58;103340.63;4994021;28;20035;-45
2024/01/08 06:37:34;;;;;;;15.60;6.53;;;;;;;2.55;56.62;103354.81;4995306;28;20038;-50
2024/01/08 06:39:59;;;;;;;14.75;6.00;;;;;;;2.72;57.36;103346.84;4993581;28;20034;-44
2024/01/08 06:42:25;;;;;;;13.68;6.60;;;;;;;2.58;58.24;103343.84;4993568;28;20035;-47
2024/01/08 06:44:50;;;;;;;15.55;6.90;;;;;;;2.64;57.09;103341.78;4993009;28;20047;-50
2024/01/08 06:47:15;;;;;;;14.07;6.60;;;;;;;2.82;57.16;103344.25;4992478;28;20053;-48
2024/01/08 06:49:41;;;;;;;14.63;6.93;;;;;;;3.00;56.87;103341.38;4991894;28;20038;-48
2024/01/08 06:52:06;;;;;;;14.88;6.63;;;;;;;2.45;58.13;103340.25;4992255;28;20146;-45
2024/01/08 06:54:31;;;;;;;12.43;6.55;;;;;;;2.59;57.75;103337.94;4993216;28;20515;-44
2024/01/08 06:56:57;;;;;;;15.32;7.18;;;;;;;2.81;57.49;103339.84;4992865;28;20034;-45
2024/01/08 06:59:23;;;;;;;15.32;7.07;;;;;;;2.97;56.45;103343.72;4992917;28;20034;-45
2024/01/08 07:01:51;;;;;;;13.45;6.47;;;;;;;3.00;56.78;103351.69;4992350;28;20043;-45
2024/01/08 07:04:16;;;;;;;14.57;6.70;;;;;;;2.35;58.81;103347.97;4992631;28;20088;-45
2024/01/08 07:06:42;;;;;;;14.15;7.22;;;;;;;2.55;57.75;103352.25;4992897;28;20062;-44
2024/01/08 07:09:07;;;;;;;15.35;7.05;;;;;;;2.81;56.91;103345.00;4990841;28;20045;-46
2024/01/08 07:11:32;;;;;;;17.83;6.57;;;;;;;2.79;57.58;103345.69;4992752;28;20039;-45
2024/01/08 07:13:58;;;;;;;15.93;6.63;;;;;;;3.20;56.12;103342.28;4991905;28;20044;-44
2024/01/08 07:16:24;;;;;;;14.27;6.47;;;;;;;2.82;56.50;103357.13;4993120;28;20038;-44
2024/01/08 07:18:50;;;;;;;14.45;6.78;;;;;;;3.12;55.84;103350.13;4992595;28;20034;-44
2024/01/08 07:21:16;;;;;;;15.55;7.03;;;;;;;2.84;56.85;103355.59;4992162;28;20489;-46
2024/01/08 07:23:48;;;;;;;14.13;6.40;;;;;;;3.04;56.73;103357.25;4992464;28;20592;-50
2024/01/08 07:26:14;;;;;;;15.18;7.05;;;;;;;2.39;57.89;103359.41;4991672;28;20045;-45
2024/01/08 07:28:43;;;;;;;12.95;6.40;;;;;;;3.03;55.95;103347.72;4992088;28;20038;-44
2024/01/08 07:31:08;;;;;;;11.80;6.30;;;;;;;2.97;55.52;103354.94;4991665;28;20104;-47
2024/01/08 07:33:36;;;;;;;13.52;6.47;;;;;;;3.10;55.31;103351.72;4991970;28;20038;-45
2024/01/08 07:36:02;;;;;;;11.95;6.43;;;;;;;2.81;55.68;103347.59;4991482;28;20049;-46
2024/01/08 07:38:27;;;;;;;14.98;6.25;;;;;;;2.75;55.30;103356.47;4992543;28;20050;-45
2024/01/08 07:40:53;;;;;;;13.48;6.18;;;;;;;3.04;55.00;103356.34;4992320;28;20042;-47
2024/01/08 07:43:18;;;;;;;14.38;5.97;;;;;;;3.01;55.44;103361.25;4991411;28;20034;-45
2024/01/08 07:45:43;;;;;;;12.63;6.10;;;;;;;2.91;55.18;103359.59;4991567;28;20125;-45
2024/01/08 07:48:09;;;;;;;15.23;6.45;;;;;;;3.06;54.26;103358.25;4991084;28;20030;-50
2024/01/08 07:50:34;;;;;;;13.70;6.13;;;;;;;3.08;54.05;103367.03;4991283;28;20039;-47
2024/01/08 07:53:00;;;;;;;12.25;5.90;;;;;;;2.94;54.84;103357.25;4991893;28;20100;-50
2024/01/08 07:55:25;;;;;;;14.93;6.07;;;;;;;3.57;52.85;103363.31;4991596;28;20046;-51
2024/01/08 07:57:50;;;;;;;12.35;6.20;;;;;;;3.40;53.25;103363.63;4992777;28;20046;-45
2024/01/08 08:00:16;;;;;;;11.77;5.57;;;;;;;3.12;53.85;103357.88;4991986;28;20460;-45
2024/01/08 08:02:41;;;;;;;13.13;5.50;;;;;;;3.14;54.08;103359.81;4994011;28;20056;-45
2024/01/08 08:05:07;;;;;;;14.75;6.00;;;;;;;2.77;54.59;103357.50;4993519;28;20042;-45
2024/01/08 08:07:32;;;;;;;10.90;5.70;;;;;;;3.07;54.49;103359.16;4993950;28;20046;-45
2024/01/08 08:09:58;;;;;;;12.85;5.93;;;;;;;3.20;54.41;103359.41;4993167;28;20038;-45
2024/01/08 08:12:24;;;;;;;13.88;5.90;;;;;;;3.20;54.08;103356.84;4992278;28;20026;-50
2024/01/08 08:14:49;;;;;;;11.48;5.95;;;;;;;3.02;54.01;103350.16;4991588;28;20039;-45
2024/01/08 08:17:15;;;;;;;12.55;5.88;;;;;;;3.06;54.27;103350.53;4990228;28;20042;-46
2024/01/08 08:19:44;;;;;;;13.52;5.93;;;;;;;3.16;53.94;103355.69;4992010;28;20069;-46
2024/01/08 08:22:11;;;;;;;11.73;5.57;;;;;;;3.31;53.63;103368.03;4991416;28;20030;-43
2024/01/08 08:24:40;;;;;;;12.48;5.93;;;;;;;3.37;54.11;103361.69;4991357;28;20035;-48
2024/01/08 08:27:10;;;;;;;13.35;6.05;;;;;;;3.59;53.91;103362.69;4990904;28;20474;-47
2024/01/08 08:29:45;;;;;;;11.55;5.60;;;;;;;3.36;55.03;103357.31;4991136;28;20542;-46
2024/01/08 08:32:11;;;;;;;11.10;5.82;;;;;;;3.31;55.09;103358.63;4990966;28;20040;-47
2024/01/08 08:34:39;;;;;;;14.05;5.57;;;;;;;3.62;55.04;103372.34;4991049;28;20065;-49
2024/01/08 08:37:05;;;;;;;12.10;5.53;;;;;;;3.73;54.14;103373.19;4991127;28;20516;-44
2024/01/08 08:39:31;;;;;;;12.60;5.72;;;;;;;4.05;53.00;103384.41;4991236;28;20078;-50
2024/01/08 08:41:56;;;;;;;10.30;5.25;;;;;;;3.73;54.17;103384.41;4990854;28;20081;-44
2024/01/08 08:44:21;;;;;;;13.27;5.63;;;;;;;3.93;53.89;103389.50;4991167;28;20038;-45
2024/01/08 08:46:47;;;;;;;10.82;5.10;;;;;;;3.85;53.56;103387.97;4990878;28;20095;-43
2024/01/08 08:49:13;;;;;;;10.90;5.50;;;;;;;3.58;54.16;103385.78;4990986;28;20037;-44
2024/01/08 08:51:39;;;;;;;10.50;5.55;;;;;;;4.11;53.48;103384.00;4991016;28;20417;-46
2024/01/08 08:54:06;;;;;;;11.07;5.88;;;;;;;3.40;53.94;103394.59;4990668;28;20041;-44
2024/01/08 08:56:32;;;;;;;12.57;5.28;;;;;;;3.66;54.41;103395.00;4989252;28;20065;-50
2024/01/08 08:58:58;;;;;;;10.18;5.07;;;;;;;3.30;54.08;103397.16;4988905;28;20074;-47
2024/01/08 09:01:23;;;;;;;11.82;5.15;;;;;;;3.17;55.14;103401.28;4990499;28;20038;-48
2024/01/08 09:03:49;;;;;;;11.65;4.65;;;;;;;3.46;53.66;103397.66;4990434;28;20045;-45
2024/01/08 09:06:14;;;;;;;11.18;5.40;;;;;;;3.39;52.89;103396.25;4990419;28;20038;-47
2024/01/08 09:08:39;;;;;;;7.88;4.30;;;;;;;3.20;52.26;103404.13;4991671;28;20031;-43
2024/01/08 09:11:05;;;;;;;8.10;4.25;;;;;;;3.40;52.33;103403.22;4992195;28;20046;-45
2024/01/08 09:13:30;;;;;;;10.07;4.40;;;;;;;3.37;51.40;103402.94;4991145;28;20030;-48
2024/01/08 09:15:55;;;;;;;8.25;4.25;;;;;;;3.40;50.92;103408.38;4990354;28;20034;-46
2024/01/08 09:18:21;;;;;;;10.02;4.35;;;;;;;3.16;51.32;103420.13;4991053;28;20125;-46
2024/01/08 09:20:46;;;;;;;10.18;4.43;;;;;;;2.97;50.70;103424.50;4990505;28;20044;-47
2024/01/08 09:23:12;;;;;;;9.13;4.10;;;;;;;3.12;51.16;103423.22;4990389;28;20096;-45
2024/01/08 09:25:37;;;;;;;8.68;3.95;;;;;;;3.03;50.26;103418.97;4990789;28;20062;-45
2024/01/08 09:28:02;;;;;;;11.38;4.38;;;;;;;3.37;50.87;103420.09;4990409;28;20707;-46
2024/01/08 09:30:29;;;;;;;8.70;4.00;;;;;;;3.33;51.32;103420.63;4989975;28;20049;-45
2024/01/08 09:32:54;;;;;;;9.48;4.70;;;;;;;3.42;49.87;103431.69;4991226;28;20045;-47
2024/01/08 09:35:19;;;;;;;8.63;4.13;;;;;;;2.74;51.28;103426.81;4990784;28;20044;-46
2024/01/08 09:37:48;;;;;;;8.75;4.25;;;;;;;3.29;51.89;103424.66;4992336;28;20050;-45
2024/01/08 09:40:13;;;;;;;9.57;4.38;;;;;;;3.54;50.70;103425.88;4991719;28;21478;-47
2024/01/08 09:42:39;;;;;;;10.43;4.47;;;;;;;3.32;50.22;103432.63;4990606;28;20035;-44
2024/01/08 09:45:10;;;;;;;9.90;4.60;;;;;;;3.59;49.80;103437.50;4988555;28;20093;-45
2024/01/08 09:47:37;;;;;;;10.27;4.90;;;;;;;3.28;50.44;103437.41;4989645;28;20681;-46
2024/01/08 09:50:04;;;;;;;9.23;4.15;;;;;;;3.50;50.50;103447.03;4990592;28;20042;-44
2024/01/08 09:52:32;;;;;;;8.55;4.28;;;;;;;3.93;49.94;103448.88;4990515;28;20053;-46
2024/01/08 09:54:58;;;;;;;9.18;4.43;;;;;;;3.47;50.57;103454.53;4990456;28;20031;-45
2024/01/08 09:57:23;;;;;;;7.45;3.80;;;;;;;3.32;50.67;103455.81;4990957;28;20464;-46
2024/01/08 09:59:48;;;;;;;10.13;4.65;;;;;;;3.25;51.02;103454.41;4990677;28;20409;-47
2024/01/08 10:02:16;;;;;;;9.70;4.53;;;;;;;3.54;49.99;103453.34;4990213;28;20045;-45
2024/01/08 10:04:41;;;;;;;9.45;4.50;;;;;;;3.34;50.53;103461.13;4990861;28;20446;-45
2024/01/08 10:07:07;;;;;;;10.05;5.28;;;;;;;3.51;49.80;103448.84;4990713;28;20121;-49
2024/01/08 10:09:33;;;;;;;10.75;4.93;;;;;;;3.32;51.53;103450.66;4993268;28;20038;-45
2024/01/08 10:11:58;;;;;;;10.57;4.72;;;;;;;3.16;51.58;103443.34;4990680;28;20505;-49
2024/01/08 10:14:25;;;;;;;9.00;4.72;;;;;;;2.79;51.05;103462.50;4994633;28;20424;-46
2024/01/08 10:16:54;;;;;;;10.05;4.93;;;;;;;2.93;51.23;103455.06;4994873;28;20124;-44
2024/01/08 10:19:23;;;;;;;9.65;4.85;;;;;;;3.60;51.06;103441.84;4993332;28;20038;-49
2024/01/08 10:22:06;;;;;;;11.45;5.22;;;;;;;3.20;51.16;103447.06;4994107;28;20038;-45
2024/01/08 10:24:31;;;;;;;8.57;4.63;;;;;;;3.51;51.27;103450.50;4993616;28;20030;-47
2024/01/08 10:26:57;;;;;;;10.13;5.00;;;;;;;3.53;50.67;103444.72;4993126;28;20056;-47
2024/01/08 10:29:24;;;;;;;10.98;5.47;;;;;;;3.35;50.51;103429.41;4993814;28;20118;-45
2024/01/08 10:31:49;;;;;;;11.52;5.55;;;;;;;3.52;50.73;103442.00;4993411;28;20112;-48
2024/01/08 10:34:16;;;;;;;12.52;5.70;;;;;;;3.30;51.77;103441.88;4992944;28;20058;-46
2024/01/08 10:36:43;;;;;;;12.38;5.55;;;;;;;3.49;51.05;103434.91;4993435;28;20113;-44
2024/01/08 10:39:09;;;;;;;10.90;5.32;;;;;;;3.57;51.49;103430.38;4992892;28;20030;-45
2024/01/08 10:41:35;;;;;;;10.57;4.95;;;;;;;3.65;51.56;103426.78;4993362;28;20540;-45
2024/01/08 10:44:01;;;;;;;12.25;5.55;;;;;;;3.17;53.02;103428.78;4992644;28;20044;-47
2024/01/08 10:46:30;;;;;;;12.45;5.53;;;;;;;3.07;53.59;103431.34;4993131;28;20042;-50
2024/01/08 10:48:57;;;;;;;13.38;5.38;;;;;;;3.30;53.64;103425.50;4992540;28;20034;-47
2024/01/08 10:51:23;;;;;;;12.48;5.93;;;;;;;3.88;52.08;103429.53;4993020;28;20060;-46
2024/01/08 10:53:53;;;;;;;10.77;5.45;;;;;;;3.76;52.07;103415.63;4992793;28;20493;-50
2024/01/08 10:56:22;;;;;;;10.82;5.97;;;;;;;3.41;53.58;103420.50;4992696;28;20035;-50
2024/01/08 10:58:51;;;;;;;12.18;5.55;;;;;;;3.83;52.25;103417.03;4993053;28;20429;-46
2024/01/08 11:01:17;;;;;;;11.30;5.57;;;;;;;3.54;51.66;103404.31;4992916;28;20488;-49
2024/01/08 11:03:44;;;;;;;13.18;5.50;;;;;;;3.80;51.40;103419.34;4992719;28;20083;-51
2024/01/08 11:06:11;;;;;;;12.60;5.40;;;;;;;3.75;51.34;103408.66;4992166;28;20049;-46
2024/01/08 11:08:37;;;;;;;10.57;5.47;;;;;;;3.65;51.41;103411.28;4991687;28;20154;-46
2024/01/08 11:11:08;;;;;;;12.18;5.40;;;;;;;3.90;50.58;103407.34;4992401;28;20073;-43
2024/01/08 11:13:34;;;;;;;9.57;4.90;;;;;;;3.13;52.22;103401.81;4993542;28;20038;-46
2024/01/08 11:16:04;;;;;;;12.40;5.93;;;;;;;3.96;50.61;103401.78;4993437;28;20181;-45
2024/01/08 11:18:29;;;;;;;11.65;5.53;;;;;;;3.92;50.38;103405.75;4993829;28;20055;-49
2024/01/08 11:20:56;;;;;;;10.57;5.53;;;;;;;3.99;50.26;103402.91;4993191;28;20073;-46